Time;durP1;ratioP1;P1;durP2;ratioP2;P2;SDS_P1;SDS_P2;PMS_P1;PMS_P2;Temp;Humidity;BMP_temperature;BMP_pressure;BME280_temperature;BME280_humidity;BME280_pressure;Samples;Min_cycle;Max_cycle;Signal;HPM_P1;HPM_P2
2023/07/13 00:00:10;;;;;;;6.25;5.75;;;;;;;15.54;73.30;100653.69;6110485;23;20021;-65
2023/07/13 00:02:36;;;;;;;5.78;5.30;;;;;;;15.22;73.91;100597.88;6078840;23;20075;-65
2023/07/13 00:05:03;;;;;;;6.07;5.47;;;;;;;15.46;73.96;100656.91;6109621;23;20089;-65
2023/07/13 00:07:31;;;;;;;5.38;5.07;;;;;;;15.41;74.34;100659.03;6108026;23;20028;-65
2023/07/13 00:09:58;;;;;;;5.55;5.15;;;;;;;15.26;75.35;100647.78;6111255;23;20664;-65
2023/07/13 00:12:29;;;;;;;7.50;5.22;;;;;;;15.35;75.23;100662.13;6111951;23;20016;-65
2023/07/13 00:15:00;;;;;;;5.40;5.10;;;;;;;15.22;75.43;100656.06;6112296;23;20088;-68
2023/07/13 00:17:30;;;;;;;5.40;5.10;;;;;;;15.20;76.52;100663.25;6115695;23;20053;-66
2023/07/13 00:19:57;;;;;;;5.30;5.00;;;;;;;14.30;76.27;100529.53;6110762;23;20040;-65
2023/07/13 00:22:25;;;;;;;5.68;5.20;;;;;;;14.97;77.26;100647.22;6115897;23;20036;-65
2023/07/13 00:24:55;;;;;;;5.70;5.30;;;;;;;15.08;77.10;100684.31;6115880;23;20237;-65
2023/07/13 00:27:22;;;;;;;5.45;5.15;;;;;;;15.10;77.73;100686.84;6090128;23;20017;-65
2023/07/13 00:29:49;;;;;;;5.90;5.38;;;;;;;15.05;77.43;100681.88;6112298;23;20040;-66
2023/07/13 00:32:15;;;;;;;5.55;5.25;;;;;;;14.76;77.89;100637.22;6117135;23;20408;-64
2023/07/13 00:34:42;;;;;;;5.55;5.25;;;;;;;15.04;78.25;100680.19;6116187;23;20021;-65
2023/07/13 00:37:08;;;;;;;5.38;5.10;;;;;;;14.49;78.46;100588.97;6113668;23;20032;-66
2023/07/13 00:39:35;;;;;;;5.78;5.38;;;;;;;14.93;78.67;100666.91;6084611;23;20031;-66
2023/07/13 00:42:03;;;;;;;5.40;5.10;;;;;;;14.86;78.85;100655.91;6115531;23;20499;-64
2023/07/13 00:44:30;;;;;;;5.25;4.93;;;;;;;14.92;78.97;100666.06;6082373;23;20036;-66
2023/07/13 00:46:58;;;;;;;5.47;5.18;;;;;;;15.02;79.20;100694.47;6112523;23;20074;-66
2023/07/13 00:49:27;;;;;;;5.70;5.40;;;;;;;14.97;79.58;100681.56;6089050;23;20064;-65
2023/07/13 00:52:21;;;;;;;5.75;5.25;;;;;;;14.65;79.81;100637.13;6114776;23;20029;-66
2023/07/13 00:54:48;;;;;;;6.05;5.45;;;;;;;14.89;79.77;100689.19;6072690;23;20027;-63
2023/07/13 00:57:18;;;;;;;5.30;5.00;;;;;;;14.55;80.13;100641.34;6119250;23;20030;-65
2023/07/13 00:59:48;;;;;;;5.25;5.05;;;;;;;14.84;80.16;100696.63;6111791;23;20053;-65
2023/07/13 01:02:19;;;;;;;5.30;5.00;;;;;;;14.55;80.81;100641.34;6112285;23;20006;-65
2023/07/13 01:04:45;;;;;;;5.57;5.10;;;;;;;14.35;80.15;100611.03;6067879;23;20038;-65
2023/07/13 01:07:12;;;;;;;6.53;6.03;;;;;;;14.81;80.73;100696.81;6111921;23;20021;-67
2023/07/13 01:09:39;;;;;;;5.30;5.00;;;;;;;14.78;80.44;100692.59;6110939;23;20073;-65
2023/07/13 01:12:06;;;;;;;5.65;5.35;;;;;;;14.79;80.77;100691.66;6112656;23;20049;-65
2023/07/13 01:14:32;;;;;;;5.30;5.00;;;;;;;14.75;81.92;100698.09;6113323;23;20029;-65
2023/07/13 01:17:00;;;;;;;5.43;5.05;;;;;;;14.76;81.11;100690.06;6112170;23;20025;-65
2023/07/13 01:19:39;;;;;;;5.40;5.10;;;;;;;14.82;81.59;100701.16;6085503;23;20624;-65
2023/07/13 01:22:17;;;;;;;4.93;4.72;;;;;;;14.82;81.21;100706.47;6113164;23;20017;-67
2023/07/13 01:24:46;;;;;;;5.75;5.35;;;;;;;14.68;81.65;100689.75;6113795;23;20043;-65
2023/07/13 01:27:16;;;;;;;5.53;5.10;;;;;;;14.83;81.45;100700.22;6109715;23;20009;-65
2023/07/13 01:29:46;;;;;;;5.55;5.15;;;;;;;14.82;80.99;100687.97;6079954;23;20608;-66
2023/07/13 01:32:22;;;;;;;5.13;4.82;;;;;;;14.84;80.87;100692.19;6108022;23;20037;-66
2023/07/13 01:34:54;;;;;;;5.43;5.10;;;;;;;14.43;81.27;100629.00;6111378;23;20022;-65
2023/07/13 01:37:21;;;;;;;5.00;4.70;;;;;;;14.78;81.54;100697.06;6111864;23;20108;-66
2023/07/13 01:39:47;;;;;;;5.40;5.03;;;;;;;14.34;81.48;100620.75;6080985;23;20686;-66
2023/07/13 01:42:14;;;;;;;5.43;5.13;;;;;;;14.78;81.39;100699.69;6091317;23;20032;-66
2023/07/13 01:44:41;;;;;;;5.40;5.10;;;;;;;14.78;81.70;100689.97;6087482;23;20445;-66
2023/07/13 01:47:07;;;;;;;5.10;4.80;;;;;;;14.73;81.58;100706.16;6111066;23;20236;-66
2023/07/13 01:49:34;;;;;;;5.15;4.95;;;;;;;14.26;82.39;100632.81;6086237;23;20038;-66
2023/07/13 01:52:00;;;;;;;4.97;4.78;;;;;;;14.68;82.17;100708.25;6115616;23;20088;-66
2023/07/13 01:54:27;;;;;;;4.80;4.60;;;;;;;14.66;83.17;100707.50;6085871;23;20089;-65
2023/07/13 01:56:53;;;;;;;5.05;4.80;;;;;;;14.64;82.28;100706.78;6112114;23;20093;-66
2023/07/13 01:59:19;;;;;;;5.28;4.88;;;;;;;14.59;82.81;100694.84;6081392;23;20026;-66
2023/07/13 02:01:46;;;;;;;5.88;5.38;;;;;;;14.49;82.64;100695.44;6107172;23;20084;-66
2023/07/13 02:04:12;;;;;;;5.15;4.80;;;;;;;14.50;82.82;100717.41;6112257;23;20060;-66
2023/07/13 02:06:39;;;;;;;5.22;4.93;;;;;;;14.48;84.26;100722.78;6088011;23;20044;-66
2023/07/13 02:09:05;;;;;;;5.90;4.97;;;;;;;14.36;84.12;100713.06;6111475;23;20024;-66
2023/07/13 02:11:33;;;;;;;4.93;4.63;;;;;;;14.10;85.00;100683.16;6112168;23;20025;-65
2023/07/13 02:14:02;;;;;;;5.30;5.00;;;;;;;14.43;86.25;100739.88;6114814;23;20037;-66
2023/07/13 02:16:30;;;;;;;5.28;4.88;;;;;;;14.42;85.75;100736.41;6113969;23;20017;-66
2023/07/13 02:19:00;;;;;;;4.90;4.70;;;;;;;14.39;86.82;100738.41;6111752;23;20034;-66
2023/07/13 02:21:26;;;;;;;5.10;4.80;;;;;;;14.36;87.02;100742.13;6113325;23;20021;-65
2023/07/13 02:23:54;;;;;;;5.72;5.20;;;;;;;14.35;87.97;100743.03;6110614;23;20052;-65
2023/07/13 02:26:21;;;;;;;4.88;4.68;;;;;;;14.34;87.26;100768.59;6085168;23;20366;-66
2023/07/13 02:28:47;;;;;;;5.05;4.85;;;;;;;14.27;88.04;100750.63;6112039;23;20061;-66
2023/07/13 02:31:15;;;;;;;5.13;4.82;;;;;;;14.24;89.67;100764.91;6112074;23;20108;-66
2023/07/13 02:33:42;;;;;;;5.57;5.25;;;;;;;14.26;89.14;100764.81;6088348;23;20033;-67
2023/07/13 02:36:09;;;;;;;5.22;4.93;;;;;;;13.98;89.29;100707.72;6112695;23;20009;-66
2023/07/13 02:38:36;;;;;;;5.43;5.13;;;;;;;14.20;90.63;100770.50;6054962;23;20034;-66
2023/07/13 02:41:05;;;;;;;6.10;5.07;;;;;;;14.28;90.40;100779.56;6108314;23;20333;-65
2023/07/13 02:43:32;;;;;;;4.95;4.60;;;;;;;14.11;89.89;100750.81;6110076;23;20524;-65
2023/07/13 02:46:03;;;;;;;5.15;4.95;;;;;;;14.03;89.86;100747.84;6105057;23;20033;-65
2023/07/13 02:48:30;;;;;;;5.07;4.87;;;;;;;14.21;89.72;100780.09;6106800;23;20036;-66
2023/07/13 02:50:56;;;;;;;5.60;5.15;;;;;;;14.21;89.22;100775.63;6086538;23;20409;-66
2023/07/13 02:53:23;;;;;;;5.45;5.00;;;;;;;13.57;89.73;100685.78;6110435;23;20029;-66
2023/07/13 02:55:50;;;;;;;5.65;5.15;;;;;;;13.90;90.30;100747.81;6109070;23;20030;-66
2023/07/13 02:58:17;;;;;;;5.07;4.75;;;;;;;13.91;89.97;100741.56;6108861;23;20093;-66
2023/07/13 03:00:46;;;;;;;5.95;5.35;;;;;;;14.15;89.83;100781.31;6106256;23;20056;-65
2023/07/13 03:03:14;;;;;;;5.18;4.80;;;;;;;14.10;90.35;100779.00;6083564;23;20017;-66
2023/07/13 03:05:42;;;;;;;5.68;5.25;;;;;;;14.13;89.41;100783.22;6112454;23;20022;-66
2023/07/13 03:08:09;;;;;;;5.63;5.22;;;;;;;14.06;89.08;100766.97;6087855;23;20017;-66
2023/07/13 03:10:35;;;;;;;5.30;5.00;;;;;;;14.11;88.64;100783.34;6110273;23;20059;-66
2023/07/13 03:13:02;;;;;;;5.65;5.10;;;;;;;14.06;88.98;100787.22;6111519;23;20040;-66
2023/07/13 03:15:29;;;;;;;5.10;4.90;;;;;;;13.67;88.83;100744.00;6109475;23;20041;-65
2023/07/13 03:17:55;;;;;;;5.00;4.55;;;;;;;14.01;89.23;100784.91;6108354;23;20044;-66
2023/07/13 03:20:21;;;;;;;5.22;4.93;;;;;;;14.02;89.33;100798.94;6111636;23;20025;-65
2023/07/13 03:22:48;;;;;;;5.05;4.85;;;;;;;13.33;88.98;100689.03;6112115;23;20014;-66
2023/07/13 03:25:14;;;;;;;5.70;5.20;;;;;;;14.01;88.66;100800.72;6091796;23;20090;-66
2023/07/13 03:27:41;;;;;;;5.20;4.90;;;;;;;13.98;88.56;100803.56;6109858;23;20015;-66
2023/07/13 03:30:08;;;;;;;5.05;4.85;;;;;;;13.68;88.93;100756.25;6108664;23;20025;-66
2023/07/13 03:32:34;;;;;;;5.60;5.20;;;;;;;13.18;88.52;100682.91;6107901;23;20559;-66
2023/07/13 03:35:01;;;;;;;5.32;5.03;;;;;;;14.02;88.27;100806.84;6106397;23;20080;-66
2023/07/13 03:37:28;;;;;;;5.00;4.80;;;;;;;14.09;88.38;100818.69;6109513;23;20510;-66
2023/07/13 03:39:54;;;;;;;5.50;5.13;;;;;;;14.06;88.16;100813.63;6107335;23;20028;-67
2023/07/13 03:42:20;;;;;;;5.18;4.88;;;;;;;12.89;87.93;100629.44;6112438;23;20013;-66
2023/07/13 03:44:52;;;;;;;5.35;5.05;;;;;;;14.08;88.28;100824.91;6111550;23;20029;-66
2023/07/13 03:47:18;;;;;;;4.75;4.55;;;;;;;13.83;87.53;100775.50;6081959;23;20329;-66
2023/07/13 03:49:46;;;;;;;5.13;4.82;;;;;;;13.88;87.42;100786.63;6106992;23;20033;-66
2023/07/13 03:52:12;;;;;;;5.07;4.80;;;;;;;14.21;87.55;100835.50;6103575;23;20028;-67
2023/07/13 03:54:38;;;;;;;4.95;4.65;;;;;;;14.26;87.26;100839.56;6104550;23;20025;-68
2023/07/13 03:57:08;;;;;;;5.20;4.90;;;;;;;13.61;87.52;100729.44;6112429;23;20034;-67
2023/07/13 03:59:34;;;;;;;5.85;5.07;;;;;;;14.37;87.51;100852.03;6111103;23;20054;-66
2023/07/13 04:02:01;;;;;;;5.15;4.85;;;;;;;14.44;87.64;100852.50;6115505;23;20031;-66
2023/07/13 04:04:28;;;;;;;5.40;4.90;;;;;;;14.31;86.74;100826.91;6094598;23;20018;-66
2023/07/13 04:06:54;;;;;;;5.43;5.10;;;;;;;14.02;86.86;100769.91;6101384;23;20122;-66
2023/07/13 04:09:21;;;;;;;5.10;4.82;;;;;;;14.58;86.23;100859.53;6102872;23;20468;-66
2023/07/13 04:11:47;;;;;;;5.03;4.72;;;;;;;13.84;86.35;100743.75;6097562;23;20040;-67
2023/07/13 04:14:13;;;;;;;5.32;5.03;;;;;;;14.15;86.17;100776.06;6113644;23;20028;-66
2023/07/13 04:16:40;;;;;;;5.43;5.13;;;;;;;14.80;85.80;100843.09;6099775;23;20679;-66
2023/07/13 04:19:09;;;;;;;7.15;5.20;;;;;;;15.50;82.68;100858.53;6092411;23;20040;-66
2023/07/13 04:21:37;;;;;;;5.40;5.10;;;;;;;16.19;80.36;100869.50;6095209;23;20526;-66
2023/07/13 04:24:03;;;;;;;5.38;5.07;;;;;;;16.69;77.30;100837.53;6098763;23;20013;-66
2023/07/13 04:26:30;;;;;;;5.50;5.10;;;;;;;17.17;74.67;100828.63;6107691;23;20067;-66
2023/07/13 04:28:57;;;;;;;5.13;4.82;;;;;;;16.54;72.35;100593.19;6114658;23;20029;-67
2023/07/13 04:31:26;;;;;;;5.10;4.90;;;;;;;17.89;69.62;100717.56;6117887;23;20046;-67
2023/07/13 04:33:53;;;;;;;5.28;4.97;;;;;;;18.28;68.32;100712.56;6071563;23;20584;-67
2023/07/13 04:36:19;;;;;;;5.65;5.20;;;;;;;18.91;66.77;100715.16;6086048;23;20032;-67
2023/07/13 04:38:46;;;;;;;5.63;5.28;;;;;;;18.75;64.91;100632.38;6072262;23;20036;-67
2023/07/13 04:41:15;;;;;;;5.40;5.10;;;;;;;19.42;64.24;100676.09;6094725;23;20041;-67
2023/07/13 04:43:44;;;;;;;5.47;5.07;;;;;;;19.90;63.68;100691.28;6082163;23;20038;-67
2023/07/13 04:46:13;;;;;;;5.65;5.25;;;;;;;19.88;61.62;100592.03;6092964;23;20741;-67
2023/07/13 04:48:40;;;;;;;5.70;5.35;;;;;;;20.36;60.26;100584.06;6085103;23;20021;-66
2023/07/13 04:51:07;;;;;;;5.68;5.18;;;;;;;20.61;59.01;100566.59;6110376;23;20017;-67
2023/07/13 04:53:34;;;;;;;6.22;5.78;;;;;;;21.22;58.65;100616.59;6087740;23;20025;-67
2023/07/13 04:56:02;;;;;;;6.13;5.72;;;;;;;20.53;57.49;100450.00;6107805;23;20042;-67
2023/07/13 04:58:29;;;;;;;6.13;5.50;;;;;;;21.42;56.45;100558.56;6104071;23;20049;-67
2023/07/13 05:01:04;;;;;;;5.78;5.43;;;;;;;21.22;55.62;100474.31;6095210;23;20042;-67
2023/07/13 05:03:31;;;;;;;5.72;5.40;;;;;;;22.07;55.51;100592.09;6085684;23;20036;-66
2023/07/13 05:06:00;;;;;;;6.28;5.75;;;;;;;22.27;54.72;100509.88;6100433;23;20029;-68
2023/07/13 05:08:26;;;;;;;5.93;5.60;;;;;;;22.38;54.00;100501.56;6087972;23;20034;-68
2023/07/13 05:10:53;;;;;;;8.43;6.00;;;;;;;21.55;53.81;100387.31;6102772;23;20018;-68
2023/07/13 05:13:20;;;;;;;6.05;5.50;;;;;;;20.41;56.42;100444.03;6078066;23;20031;-67
2023/07/13 05:15:56;;;;;;;8.30;5.40;;;;;;;21.70;54.58;100545.94;6112192;23;20317;-68
2023/07/13 05:18:22;;;;;;;6.05;5.65;;;;;;;22.06;54.95;100574.41;6114684;23;20034;-66
2023/07/13 05:21:01;;;;;;;5.82;5.40;;;;;;;21.35;55.02;100513.94;6101619;23;20046;-65
2023/07/13 05:23:27;;;;;;;6.15;5.75;;;;;;;21.51;55.55;100548.81;6103279;23;20039;-65
2023/07/13 05:25:54;;;;;;;5.93;5.53;;;;;;;21.77;55.14;100566.69;6109380;23;20369;-66
2023/07/13 05:28:21;;;;;;;6.00;5.50;;;;;;;22.37;53.47;100597.97;6111421;23;20085;-66
2023/07/13 05:30:48;;;;;;;5.80;5.50;;;;;;;21.88;53.58;100540.56;6084086;23;20034;-66
2023/07/13 05:33:15;;;;;;;5.90;5.60;;;;;;;22.78;52.53;100552.69;6110156;23;20500;-66
2023/07/13 05:35:42;;;;;;;5.80;5.50;;;;;;;23.03;52.22;100612.47;6083488;23;20036;-66
2023/07/13 05:38:08;;;;;;;8.38;5.70;;;;;;;22.60;52.19;100583.06;6113208;23;20037;-68
2023/07/13 05:40:35;;;;;;;6.22;5.65;;;;;;;21.72;54.02;100575.19;6110065;23;20036;-70
2023/07/13 05:43:01;;;;;;;5.90;5.60;;;;;;;22.15;54.13;100628.75;6111805;23;20030;-66
2023/07/13 05:45:28;;;;;;;5.85;5.45;;;;;;;21.72;55.60;100652.63;6111557;23;20029;-66
2023/07/13 05:47:54;;;;;;;7.00;6.40;;;;;;;21.60;55.95;100643.19;6111237;23;20032;-66
2023/07/13 05:50:21;;;;;;;6.15;5.70;;;;;;;20.94;57.27;100689.66;6090375;23;20417;-67
2023/07/13 05:52:47;;;;;;;6.00;5.70;;;;;;;20.60;58.50;100677.72;6108054;23;20029;-66
2023/07/13 05:55:13;;;;;;;5.88;5.57;;;;;;;20.98;57.92;100723.88;6111643;23;20021;-67
2023/07/13 05:57:40;;;;;;;6.20;5.40;;;;;;;21.28;57.97;100765.47;6086414;23;20045;-66
2023/07/13 06:00:07;;;;;;;6.50;5.90;;;;;;;21.89;56.69;100765.84;6081880;23;20029;-66
2023/07/13 06:02:33;;;;;;;6.30;5.70;;;;;;;22.01;55.52;100681.78;6112447;23;20025;-66
2023/07/13 06:05:00;;;;;;;6.20;5.70;;;;;;;21.52;56.87;100708.88;6113819;23;20052;-67
2023/07/13 06:07:26;;;;;;;5.90;5.60;;;;;;;21.67;55.72;100668.31;6102239;23;20025;-65
2023/07/13 06:09:53;;;;;;;6.40;5.70;;;;;;;21.27;57.04;100674.88;6112159;23;20028;-68
2023/07/13 06:12:19;;;;;;;6.90;6.32;;;;;;;21.22;59.10;100800.75;6081665;23;20054;-65
2023/07/13 06:14:46;;;;;;;6.85;6.20;;;;;;;21.87;57.54;100816.75;6110198;23;20144;-65
2023/07/13 06:17:12;;;;;;;5.97;5.68;;;;;;;22.16;56.20;100797.00;6080996;23;20028;-65
2023/07/13 06:19:39;;;;;;;6.18;5.70;;;;;;;22.47;55.68;100799.28;6113313;23;20017;-68
2023/07/13 06:22:05;;;;;;;6.65;5.97;;;;;;;22.62;54.46;100719.31;6103670;23;20022;-66
2023/07/13 06:24:32;;;;;;;5.75;5.45;;;;;;;22.65;54.47;100724.34;6107806;23;20034;-66
2023/07/13 06:26:58;;;;;;;6.60;6.00;;;;;;;22.52;53.17;100628.50;6094684;23;20025;-66
2023/07/13 06:29:25;;;;;;;6.30;5.90;;;;;;;22.33;55.64;100755.25;6112798;23;20109;-67
2023/07/13 06:31:51;;;;;;;6.03;5.60;;;;;;;22.27;56.42;100761.19;6102569;23;20056;-66
2023/07/13 06:34:18;;;;;;;6.20;5.80;;;;;;;22.13;56.47;100737.66;6093442;23;20784;-66
2023/07/13 06:36:44;;;;;;;6.70;5.97;;;;;;;21.58;57.41;100757.34;6104067;23;20052;-68
2023/07/13 06:39:11;;;;;;;6.22;5.82;;;;;;;20.87;59.22;100732.94;6091203;23;20629;-67
2023/07/13 06:41:38;;;;;;;7.68;7.00;;;;;;;20.84;60.19;100810.56;6086793;23;20059;-66
2023/07/13 06:44:06;;;;;;;6.10;5.70;;;;;;;20.73;61.66;100856.09;6090922;23;20026;-66
2023/07/13 06:46:32;;;;;;;6.13;5.72;;;;;;;21.04;60.30;100848.72;6090373;23;20096;-66
2023/07/13 06:48:59;;;;;;;6.93;5.72;;;;;;;21.48;59.92;100886.41;6100102;23;20040;-69
2023/07/13 06:51:26;;;;;;;5.95;5.65;;;;;;;21.57;59.28;100847.31;6113757;23;20021;-66
2023/07/13 06:53:52;;;;;;;5.95;5.65;;;;;;;22.23;56.78;100806.09;6109391;23;20101;-66
2023/07/13 06:56:19;;;;;;;8.18;6.00;;;;;;;22.06;56.56;100794.38;6092045;23;20479;-66
2023/07/13 06:58:45;;;;;;;8.85;5.85;;;;;;;21.56;57.35;100749.47;6079648;23;20034;-66
2023/07/13 07:01:12;;;;;;;6.97;6.13;;;;;;;21.36;59.21;100817.28;6104605;23;19997;-66
2023/07/13 07:03:38;;;;;;;8.35;5.80;;;;;;;21.14;60.19;100831.84;6110526;23;20094;-66
2023/07/13 07:06:23;;;;;;;6.22;5.60;;;;;;;20.94;59.69;100823.88;6110267;23;20064;-66
2023/07/13 07:08:50;;;;;;;6.53;5.90;;;;;;;20.56;61.98;100856.78;6065441;23;20021;-65
2023/07/13 07:11:22;;;;;;;7.53;5.70;;;;;;;20.79;62.46;100889.34;6104597;23;20088;-66
2023/07/13 07:13:49;;;;;;;6.10;5.70;;;;;;;20.38;62.65;100845.97;6109707;23;20028;-66
2023/07/13 07:16:18;;;;;;;6.75;6.18;;;;;;;20.75;62.11;100879.94;6083468;23;20041;-66
2023/07/13 07:18:45;;;;;;;6.60;6.10;;;;;;;20.55;61.52;100847.94;6108065;23;20034;-66
2023/07/13 07:21:13;;;;;;;14.15;7.53;;;;;;;20.57;61.56;100855.78;6111084;23;20488;-66
2023/07/13 07:23:40;;;;;;;6.65;5.82;;;;;;;20.55;62.69;100893.25;6083347;23;20032;-67
2023/07/13 07:26:08;;;;;;;9.27;6.18;;;;;;;20.79;62.00;100892.00;6099142;23;20106;-67
2023/07/13 07:28:35;;;;;;;7.68;6.00;;;;;;;21.10;61.57;100887.31;6080587;23;20046;-66
2023/07/13 07:31:04;;;;;;;6.78;6.28;;;;;;;21.29;60.71;100891.78;6110810;23;20048;-66
2023/07/13 07:33:36;;;;;;;6.38;5.80;;;;;;;20.94;60.85;100813.22;6112964;23;20763;-66
2023/07/13 07:36:04;;;;;;;5.95;5.57;;;;;;;20.98;61.80;100883.16;6110035;23;20029;-66
2023/07/13 07:38:33;;;;;;;6.07;5.68;;;;;;;20.97;61.55;100881.44;6110115;23;20023;-66
2023/07/13 07:41:04;;;;;;;6.30;5.78;;;;;;;21.02;61.00;100845.34;6114907;23;20025;-66
2023/07/13 07:43:33;;;;;;;6.43;5.80;;;;;;;21.27;61.13;100888.44;6109203;23;20021;-66
2023/07/13 07:46:00;;;;;;;6.40;5.80;;;;;;;20.95;61.11;100860.28;6106567;23;20097;-66
2023/07/13 07:48:29;;;;;;;5.95;5.45;;;;;;;20.58;61.51;100804.97;6085761;23;20096;-67
2023/07/13 07:50:55;;;;;;;6.20;5.72;;;;;;;20.36;62.53;100826.59;6111455;23;20534;-66
2023/07/13 07:53:22;;;;;;;5.97;5.68;;;;;;;20.82;63.55;100943.25;6112339;23;20104;-67
2023/07/13 07:55:48;;;;;;;6.10;5.72;;;;;;;21.21;62.32;100927.22;6107917;23;20416;-67
2023/07/13 07:58:18;;;;;;;7.30;6.43;;;;;;;21.38;61.18;100882.91;6115493;23;20025;-66
2023/07/13 08:01:05;;;;;;;6.60;6.00;;;;;;;21.30;61.17;100859.59;6115280;23;20002;-68
2023/07/13 08:03:35;;;;;;;6.53;5.95;;;;;;;21.64;59.80;100888.44;6108477;23;20037;-66
2023/07/13 08:06:04;;;;;;;6.53;6.03;;;;;;;21.75;59.39;100868.72;6103952;23;20013;-67
2023/07/13 08:08:34;;;;;;;8.73;6.20;;;;;;;22.10;59.05;100901.84;6108828;23;20089;-67
2023/07/13 08:11:07;;;;;;;6.63;6.13;;;;;;;22.01;59.24;100870.66;6087747;23;20140;-67
2023/07/13 08:13:53;;;;;;;6.25;5.75;;;;;;;21.45;59.33;100806.59;6109006;23;20460;-67
2023/07/13 08:16:22;;;;;;;7.15;6.05;;;;;;;20.82;60.39;100766.38;6076866;23;20875;-66
2023/07/13 08:18:49;;;;;;;6.25;5.95;;;;;;;21.25;60.07;100795.13;6090653;23;20055;-67
2023/07/13 08:21:15;;;;;;;6.55;5.95;;;;;;;21.74;60.79;100930.31;6107918;23;20025;-67
2023/07/13 08:23:41;;;;;;;7.18;6.68;;;;;;;21.94;59.42;100874.94;6108664;23;20092;-67
2023/07/13 08:26:09;;;;;;;6.60;6.07;;;;;;;22.09;58.51;100862.72;6107249;23;20005;-67
2023/07/13 08:28:36;;;;;;;6.07;5.78;;;;;;;21.84;60.63;100899.03;6111828;23;20082;-67
2023/07/13 08:31:04;;;;;;;6.45;5.85;;;;;;;22.16;58.37;100871.00;6104288;23;20416;-67
2023/07/13 08:33:30;;;;;;;6.45;6.05;;;;;;;21.78;59.53;100841.69;6106023;23;20033;-66
2023/07/13 08:35:57;;;;;;;5.97;5.68;;;;;;;21.62;59.96;100845.00;6108109;23;20037;-67
2023/07/13 08:38:23;;;;;;;6.45;5.93;;;;;;;22.55;59.05;100921.53;6110647;23;20533;-67
2023/07/13 08:40:53;;;;;;;6.82;6.10;;;;;;;22.54;57.25;100858.34;6106874;23;20021;-67
2023/07/13 08:43:25;;;;;;;6.20;5.82;;;;;;;22.06;57.61;100753.47;6116140;23;20556;-67
2023/07/13 08:46:08;;;;;;;6.18;5.80;;;;;;;21.84;58.23;100752.94;6115467;23;20029;-68
2023/07/13 08:48:48;;;;;;;6.68;6.07;;;;;;;22.48;57.56;100876.69;6089649;23;20136;-67
2023/07/13 08:51:44;;;;;;;5.93;5.63;;;;;;;22.29;57.51;100831.38;6113535;23;20266;-67
2023/07/13 08:54:34;;;;;;;6.90;6.30;;;;;;;21.64;57.77;100719.34;6085043;23;20648;-67
2023/07/13 08:57:09;;;;;;;6.03;5.55;;;;;;;22.53;57.57;100859.34;6069694;23;20690;-67
2023/07/13 08:59:36;;;;;;;5.88;5.57;;;;;;;23.25;57.24;100897.53;6116163;23;20443;-68
2023/07/13 09:02:16;;;;;;;6.72;5.88;;;;;;;23.14;55.46;100788.03;6114155;23;20635;-66
2023/07/13 09:04:50;;;;;;;6.20;5.60;;;;;;;22.70;56.04;100800.47;6110960;23;20059;-67
2023/07/13 09:07:35;;;;;;;6.05;5.55;;;;;;;23.09;55.07;100832.19;6114963;23;20364;-66
2023/07/13 09:10:13;;;;;;;6.45;5.95;;;;;;;22.77;55.16;100770.41;6083435;23;20052;-66
2023/07/13 09:12:48;;;;;;;6.60;6.10;;;;;;;23.14;55.55;100871.03;6110288;23;20017;-67
2023/07/13 09:15:40;;;;;;;7.32;6.85;;;;;;;23.10;54.33;100729.47;6088482;23;20081;-68
2023/07/13 09:18:24;;;;;;;6.63;5.85;;;;;;;23.14;54.86;100812.97;6113615;23;20370;-67
2023/07/13 09:21:15;;;;;;;6.32;5.63;;;;;;;23.77;53.96;100813.56;6112136;23;20028;-66
2023/07/13 09:23:41;;;;;;;6.07;5.57;;;;;;;23.94;52.32;100791.19;6093925;23;20571;-68
2023/07/13 09:26:16;;;;;;;6.45;5.90;;;;;;;23.87;53.01;100774.94;6111840;23;20678;-68
2023/07/13 09:28:45;;;;;;;6.75;6.25;;;;;;;23.91;51.79;100727.16;6089221;23;20025;-68
2023/07/13 09:31:18;;;;;;;11.63;10.98;;;;;;;24.24;51.60;100783.50;5995129;23;20686;-67
2023/07/13 09:33:45;;;;;;;6.57;5.95;;;;;;;24.24;51.64;100759.38;6110135;23;20022;-67
2023/07/13 09:36:31;;;;;;;6.43;5.82;;;;;;;24.42;51.84;100805.63;6110523;23;20084;-67
2023/07/13 09:39:13;;;;;;;6.43;5.88;;;;;;;24.43;51.79;100791.19;6118645;23;20067;-67
2023/07/13 09:42:05;;;;;;;7.20;5.88;;;;;;;23.65;50.05;100567.38;6114283;23;20084;-67
2023/07/13 09:44:36;;;;;;;6.72;6.07;;;;;;;23.42;50.81;100622.59;6084393;23;20029;-66
2023/07/13 09:47:03;;;;;;;6.30;5.70;;;;;;;23.68;50.73;100687.59;6114605;23;20623;-67
2023/07/13 09:49:37;;;;;;;6.90;6.40;;;;;;;23.83;51.64;100727.16;6111881;23;20021;-69
2023/07/13 09:52:06;;;;;;;6.13;5.63;;;;;;;24.12;50.98;100758.84;6090262;23;20013;-69
2023/07/13 09:54:35;;;;;;;6.10;5.70;;;;;;;23.98;51.09;100748.81;6092120;23;20034;-66
2023/07/13 09:57:11;;;;;;;6.05;5.75;;;;;;;23.45;52.03;100703.47;6114099;23;20405;-66
2023/07/13 09:59:44;;;;;;;6.05;5.65;;;;;;;23.26;52.73;100741.25;6112932;23;20042;-67
2023/07/13 10:02:30;;;;;;;6.07;5.63;;;;;;;24.18;50.97;100766.22;6114665;23;20029;-66
2023/07/13 10:05:04;;;;;;;6.22;5.82;;;;;;;23.98;50.58;100706.75;6115713;23;20055;-66
2023/07/13 10:07:31;;;;;;;6.07;5.72;;;;;;;24.14;51.65;100780.97;6085440;23;20087;-66
2023/07/13 10:10:00;;;;;;;6.70;6.20;;;;;;;24.49;50.95;100811.97;6113724;23;20237;-67
2023/07/13 10:12:29;;;;;;;6.75;6.15;;;;;;;25.06;48.56;100762.75;6118981;23;20014;-66
2023/07/13 10:15:01;;;;;;;6.13;5.80;;;;;;;24.68;49.10;100691.94;6115309;23;20404;-66
2023/07/13 10:17:50;;;;;;;6.00;5.70;;;;;;;24.59;48.51;100658.06;6113375;23;20084;-66
2023/07/13 10:20:17;;;;;;;7.30;6.68;;;;;;;24.63;48.79;100713.06;6111706;23;20049;-67
2023/07/13 10:22:54;;;;;;;5.82;5.50;;;;;;;24.12;50.23;100724.00;6113446;23;20080;-66
2023/07/13 10:25:26;;;;;;;6.07;5.57;;;;;;;24.19;49.27;100646.41;6114741;23;20033;-66
2023/07/13 10:27:58;;;;;;;6.20;5.70;;;;;;;24.05;50.08;100705.03;6115298;23;20029;-67
2023/07/13 10:30:29;;;;;;;6.30;5.40;;;;;;;23.66;49.51;100597.69;6116877;23;20025;-67
2023/07/13 10:33:04;;;;;;;5.87;5.57;;;;;;;23.99;50.20;100723.66;6113041;23;20022;-66
2023/07/13 10:35:31;;;;;;;5.95;5.55;;;;;;;24.07;50.27;100712.94;6116061;23;20302;-66
2023/07/13 10:38:12;;;;;;;6.07;5.68;;;;;;;23.71;49.98;100664.97;6112216;23;20049;-66
2023/07/13 10:40:47;;;;;;;9.35;5.97;;;;;;;23.88;50.84;100731.03;6087868;23;20033;-66
2023/07/13 10:43:24;;;;;;;6.60;6.00;;;;;;;24.16;50.44;100741.44;6109969;23;20686;-67
2023/07/13 10:45:51;;;;;;;7.18;6.57;;;;;;;24.64;48.88;100768.41;6084360;23;20043;-67
2023/07/13 10:48:19;;;;;;;6.53;6.03;;;;;;;24.53;49.06;100699.00;6097665;23;20062;-66
2023/07/13 10:50:48;;;;;;;6.38;5.80;;;;;;;24.78;48.75;100740.88;6111503;23;20032;-66
2023/07/13 10:53:30;;;;;;;6.20;5.68;;;;;;;24.14;48.69;100654.97;6112159;23;20025;-66
2023/07/13 10:56:08;;;;;;;6.07;5.67;;;;;;;23.97;50.11;100688.13;6109930;23;20634;-67
2023/07/13 10:58:37;;;;;;;6.05;5.63;;;;;;;23.59;50.39;100639.53;6110755;23;20029;-67
2023/07/13 11:01:11;;;;;;;6.13;5.50;;;;;;;23.57;50.81;100722.72;6110871;23;20589;-66
2023/07/13 11:03:53;;;;;;;7.13;6.55;;;;;;;23.35;50.23;100648.38;6105713;23;20032;-67
2023/07/13 11:06:22;;;;;;;6.25;5.75;;;;;;;23.76;50.51;100726.97;6109354;23;20009;-67
2023/07/13 11:08:49;;;;;;;5.97;5.57;;;;;;;23.96;50.84;100756.19;6113981;23;20100;-66
2023/07/13 11:11:27;;;;;;;6.20;5.70;;;;;;;23.95;50.07;100716.97;6110392;23;20691;-67
2023/07/13 11:13:53;;;;;;;7.00;5.82;;;;;;;23.69;49.72;100656.28;6111829;23;20075;-66
2023/07/13 11:16:20;;;;;;;6.55;6.05;;;;;;;23.60;50.64;100668.00;6081151;23;20018;-66
2023/07/13 11:19:02;;;;;;;6.60;6.07;;;;;;;23.72;51.34;100748.91;6107873;23;20050;-66
2023/07/13 11:21:30;;;;;;;6.50;5.90;;;;;;;23.84;50.07;100728.84;6087127;23;20021;-66
2023/07/13 11:24:17;;;;;;;8.57;5.50;;;;;;;23.68;51.52;100741.19;6087470;23;20118;-68
2023/07/13 11:26:47;;;;;;;6.60;6.00;;;;;;;23.89;50.23;100719.31;6081310;23;20610;-67
2023/07/13 11:29:31;;;;;;;6.35;5.95;;;;;;;24.18;49.63;100760.88;6112291;23;20634;-67
2023/07/13 11:32:01;;;;;;;5.90;5.47;;;;;;;24.17;49.11;100694.00;6110499;23;20021;-66
2023/07/13 11:34:33;;;;;;;5.97;5.57;;;;;;;24.23;47.76;100631.63;6112663;23;20049;-66